createdAt,value
2022-09-13T00:02:19.369Z,82.31
2022-09-13T00:04:41.183Z,83.99
2022-09-13T00:07:02.593Z,82.24
2022-09-13T00:09:24.024Z,83.84
2022-09-13T00:11:45.494Z,83.56
2022-09-13T00:14:06.906Z,83.22
2022-09-13T00:16:29.656Z,82.95
2022-09-13T00:18:52.370Z,82.88
2022-09-13T00:21:16.488Z,82.20
2022-09-13T00:23:38.144Z,81.96
2022-09-13T00:26:11.655Z,81.81
2022-09-13T00:28:33.119Z,83.47
2022-09-13T00:30:54.510Z,84.42
2022-09-13T00:33:15.930Z,84.05
2022-09-13T00:35:37.338Z,82.91
2022-09-13T00:38:01.905Z,82.36
2022-09-13T00:40:23.334Z,82.17
2022-09-13T00:42:44.913Z,82.36
2022-09-13T00:45:12.292Z,83.53
2022-09-13T00:47:43.749Z,83.98
2022-09-13T00:50:33.222Z,83.74
2022-09-13T00:52:57.689Z,84.02
2022-09-13T00:55:26.093Z,83.04
2022-09-13T00:57:47.765Z,82.28
2022-09-13T01:00:13.629Z,81.83
2022-09-13T01:02:35.611Z,85.40
2022-09-13T01:04:57.033Z,84.26
2022-09-13T01:07:19.238Z,83.26
2022-09-13T01:09:45.978Z,82.20
2022-09-13T01:12:23.673Z,81.89
2022-09-13T01:14:46.588Z,81.87
2022-09-13T01:17:08.881Z,82.41
2022-09-13T01:19:30.441Z,84.55
2022-09-13T01:22:10.533Z,85.31
2022-09-13T01:24:59.880Z,84.15
2022-09-13T01:27:42.888Z,86.06
2022-09-13T01:30:20.666Z,84.88
2022-09-13T01:33:07.130Z,84.11
2022-09-13T01:35:53.156Z,84.00
2022-09-13T01:38:45.937Z,83.59
2022-09-13T01:41:44.918Z,87.42
2022-09-13T01:44:43.650Z,87.31
2022-09-13T01:47:29.919Z,85.41
2022-09-13T01:50:09.947Z,85.18
2022-09-13T01:52:56.882Z,85.06
2022-09-13T01:55:29.390Z,83.78
2022-09-13T01:58:00.390Z,83.22
2022-09-13T02:00:21.904Z,83.02
2022-09-13T02:03:14.676Z,82.94
2022-09-13T02:05:39.125Z,83.52
2022-09-13T02:08:09.366Z,85.45
2022-09-13T02:10:46.169Z,85.75
2022-09-13T02:13:13.810Z,84.52
2022-09-13T02:15:41.806Z,83.74
2022-09-13T02:18:12.347Z,83.34
2022-09-13T02:20:38.473Z,83.53
2022-09-13T02:23:04.602Z,83.39
2022-09-13T02:25:28.104Z,84.10
2022-09-13T02:27:57.948Z,84.03
2022-09-13T02:30:19.719Z,85.37
2022-09-13T02:32:49.895Z,84.91
2022-09-13T02:35:18.051Z,85.42
2022-09-13T02:37:42.395Z,84.52
2022-09-13T02:40:23.446Z,83.56
2022-09-13T02:42:53.253Z,83.29
2022-09-13T02:45:15.432Z,83.29
2022-09-13T02:47:57.493Z,85.79
2022-09-13T02:50:46.118Z,85.87
2022-09-13T02:53:22.531Z,86.12
2022-09-13T02:55:58.933Z,87.59
2022-09-13T02:58:42.894Z,86.16
2022-09-13T03:01:04.505Z,86.28
2022-09-13T03:03:26.064Z,85.87
2022-09-13T03:05:47.604Z,86.92
2022-09-13T03:08:12.411Z,86.80
2022-09-13T03:11:03.631Z,88.60
2022-09-13T03:13:49.300Z,88.69
2022-09-13T03:16:41.814Z,87.74
2022-09-13T03:19:15.452Z,86.96
2022-09-13T03:21:51.953Z,86.79
2022-09-13T03:24:24.586Z,86.25
2022-09-13T03:27:01.074Z,86.02
2022-09-13T03:29:29.726Z,86.25
2022-09-13T03:32:04.984Z,85.92
2022-09-13T03:34:55.785Z,85.40
2022-09-13T03:37:31.928Z,86.94
2022-09-13T03:40:03.602Z,85.94
2022-09-13T03:42:33.522Z,85.21
2022-09-13T03:44:57.746Z,85.06
2022-09-13T03:47:21.653Z,84.87
2022-09-13T03:49:43.131Z,85.03
2022-09-13T03:52:05.014Z,84.50
2022-09-13T03:54:31.465Z,84.56
2022-09-13T03:57:21.352Z,83.95
2022-09-13T03:59:54.403Z,86.00
2022-09-13T04:02:16.836Z,86.11
2022-09-13T04:04:42.895Z,85.56
2022-09-13T04:07:04.482Z,85.07
2022-09-13T04:09:25.907Z,84.87
2022-09-13T04:11:47.307Z,85.04
2022-09-13T04:14:08.735Z,88.05
2022-09-13T04:16:30.183Z,86.38
2022-09-13T04:18:51.642Z,85.50
2022-09-13T04:21:13.119Z,85.47
2022-09-13T04:23:34.545Z,85.25
2022-09-13T04:26:01.464Z,85.24
2022-09-13T04:28:23.034Z,85.11
2022-09-13T04:30:45.965Z,85.29
2022-09-13T04:33:07.362Z,87.96
2022-09-13T04:35:28.901Z,86.41
2022-09-13T04:37:50.315Z,87.19
2022-09-13T04:40:12.401Z,86.68
2022-09-13T04:42:33.907Z,87.51
2022-09-13T04:44:55.818Z,86.51
2022-09-13T04:47:17.249Z,85.85
2022-09-13T04:49:39.325Z,86.98
2022-09-13T04:52:00.743Z,86.68
2022-09-13T04:54:22.320Z,87.58
2022-09-13T04:56:44.604Z,86.49
2022-09-13T04:59:07.009Z,86.88
2022-09-13T05:01:29.883Z,86.55
2022-09-13T05:03:53.491Z,86.39
2022-09-13T05:06:19.658Z,86.23
2022-09-13T05:08:41.255Z,87.22
2022-09-13T05:11:03.384Z,87.88
2022-09-13T05:13:28.202Z,86.79
2022-09-13T05:15:49.682Z,87.54
2022-09-13T05:18:11.093Z,87.21
2022-09-13T05:20:32.508Z,87.04
2022-09-13T05:22:55.762Z,86.76
2022-09-13T05:25:17.223Z,86.17
2022-09-13T05:27:38.699Z,86.14
2022-09-13T05:30:00.150Z,85.85
2022-09-13T05:32:21.598Z,85.32
2022-09-13T05:34:43.098Z,85.39
2022-09-13T05:37:04.580Z,85.52
2022-09-13T05:39:36.038Z,86.68
2022-09-13T05:42:01.080Z,86.36
2022-09-13T05:44:22.952Z,87.44
2022-09-13T05:46:47.732Z,87.98
2022-09-13T05:49:09.237Z,87.08
2022-09-13T05:51:31.106Z,86.10
2022-09-13T05:53:54.703Z,85.68
2022-09-13T05:56:18.720Z,84.94
2022-09-13T05:58:42.179Z,84.82
2022-09-13T06:01:03.652Z,85.08
2022-09-13T06:03:25.475Z,85.08
2022-09-13T06:05:46.899Z,85.85
2022-09-13T06:08:08.310Z,85.21
2022-09-13T06:10:30.363Z,86.37
2022-09-13T06:12:51.795Z,85.37
2022-09-13T06:15:13.738Z,84.71
2022-09-13T06:17:35.232Z,84.55
2022-09-13T06:19:57.101Z,84.29
2022-09-13T06:22:18.518Z,84.19
2022-09-13T06:24:39.967Z,84.20
2022-09-13T06:27:01.354Z,84.84
2022-09-13T06:29:22.815Z,84.55
2022-09-13T06:31:45.336Z,84.59
2022-09-13T06:34:07.294Z,84.81
2022-09-13T06:36:30.327Z,90.09
2022-09-13T06:38:51.815Z,87.98
2022-09-13T06:41:15.740Z,86.88
2022-09-13T06:43:38.416Z,86.20
2022-09-13T06:46:06.334Z,85.80
2022-09-13T06:48:31.586Z,85.59
2022-09-13T06:50:53.003Z,85.55
2022-09-13T06:53:14.422Z,87.35
2022-09-13T06:55:35.835Z,88.58
2022-09-13T06:57:58.970Z,89.27
2022-09-13T07:00:20.533Z,91.14
2022-09-13T07:02:41.934Z,90.63
2022-09-13T07:05:03.484Z,91.95
2022-09-13T07:07:24.904Z,89.95
2022-09-13T07:09:46.357Z,89.00
2022-09-13T07:12:07.797Z,87.95
2022-09-13T07:14:29.674Z,87.24
2022-09-13T07:16:51.901Z,87.09
2022-09-13T07:19:22.894Z,89.11
2022-09-13T07:21:44.852Z,89.66
2022-09-13T07:24:06.541Z,89.11
2022-09-13T07:26:28.378Z,88.73
2022-09-13T07:28:52.929Z,88.60
2022-09-13T07:31:17.840Z,89.21
2022-09-13T07:33:40.849Z,88.62
2022-09-13T07:36:06.387Z,87.52
2022-09-13T07:38:27.810Z,86.40
2022-09-13T07:40:58.119Z,85.27
2022-09-13T07:43:19.547Z,84.66
2022-09-13T07:45:40.963Z,85.42
2022-09-13T07:48:02.594Z,87.50
2022-09-13T07:50:24.054Z,86.89
2022-09-13T07:52:45.514Z,87.94
2022-09-13T07:55:07.157Z,85.44
2022-09-13T07:57:28.564Z,85.02
2022-09-13T07:59:50.024Z,85.41
2022-09-13T08:02:11.565Z,84.60
2022-09-13T08:04:36.290Z,84.83
2022-09-13T08:06:57.987Z,82.77
2022-09-13T08:09:19.476Z,82.44
2022-09-13T08:11:44.553Z,80.70
2022-09-13T08:14:09.065Z,80.88
2022-09-13T08:16:31.024Z,81.32
2022-09-13T08:18:56.438Z,82.88
2022-09-13T08:21:18.927Z,82.10
2022-09-13T08:23:41.277Z,83.14
2022-09-13T08:26:03.769Z,82.76
2022-09-13T08:28:27.697Z,81.54
2022-09-13T08:30:49.961Z,83.04
2022-09-13T08:33:11.958Z,81.19
2022-09-13T08:35:33.774Z,81.54
2022-09-13T08:37:55.763Z,80.72
2022-09-13T08:40:17.543Z,79.75
2022-09-13T08:43:02.642Z,77.12
2022-09-13T08:45:24.280Z,75.02
2022-09-13T08:47:55.086Z,74.46
2022-09-13T08:50:21.374Z,72.59
2022-09-13T08:52:55.206Z,72.02
2022-09-13T08:55:26.073Z,68.98
2022-09-13T08:58:12.571Z,69.41
2022-09-13T09:00:40.730Z,71.88
2022-09-13T09:03:26.098Z,70.66
2022-09-13T09:05:50.071Z,71.26
2022-09-13T09:08:20.438Z,70.98
2022-09-13T09:10:46.700Z,69.85
2022-09-13T09:13:27.891Z,69.23
2022-09-13T09:15:55.082Z,68.00
2022-09-13T09:18:29.221Z,68.02
2022-09-13T09:20:54.661Z,68.25
2022-09-13T09:23:21.658Z,66.45
2022-09-13T09:25:43.472Z,65.52
2022-09-13T09:28:13.623Z,65.92
2022-09-13T09:30:46.011Z,64.81
2022-09-13T09:33:22.938Z,63.38
2022-09-13T09:35:50.526Z,62.65
2022-09-13T09:38:24.031Z,61.12
2022-09-13T09:40:45.937Z,61.37
2022-09-13T09:43:19.896Z,60.50
2022-09-13T09:45:43.282Z,61.66
2022-09-13T09:48:16.752Z,62.77
2022-09-13T09:50:44.129Z,63.33
2022-09-13T09:53:36.623Z,62.16
2022-09-13T09:56:17.161Z,63.81
2022-09-13T09:58:41.502Z,63.60
2022-09-13T10:01:09.626Z,63.13
2022-09-13T10:03:34.335Z,60.92
2022-09-13T10:06:05.998Z,63.53
2022-09-13T10:08:32.626Z,64.02
2022-09-13T10:10:57.465Z,62.00
2022-09-13T10:13:21.461Z,62.94
2022-09-13T10:16:06.407Z,62.40
2022-09-13T10:18:45.669Z,64.17
2022-09-13T10:21:19.281Z,62.75
2022-09-13T10:23:40.723Z,63.34
2022-09-13T10:26:12.222Z,63.12
2022-09-13T10:28:41.494Z,61.93
2022-09-13T10:31:17.070Z,60.28
2022-09-13T10:33:42.630Z,62.50
2022-09-13T10:36:48.245Z,62.18
2022-09-13T10:39:12.951Z,62.14
2022-09-13T10:41:39.279Z,60.37
2022-09-13T10:44:09.591Z,58.66
2022-09-13T10:46:33.823Z,59.25
2022-09-13T10:48:57.923Z,57.69
2022-09-13T10:51:38.541Z,57.74
2022-09-13T10:54:20.804Z,57.13
2022-09-13T10:56:45.458Z,57.19
2022-09-13T10:59:25.206Z,55.92
2022-09-13T11:02:05.031Z,54.34
2022-09-13T11:04:54.588Z,54.16
2022-09-13T11:07:41.663Z,53.13
2022-09-13T11:10:32.621Z,51.33
2022-09-13T11:13:07.514Z,51.76
2022-09-13T11:15:55.966Z,52.23
2022-09-13T11:18:38.428Z,48.86
2022-09-13T11:21:17.833Z,49.95
2022-09-13T11:23:45.379Z,50.35
2022-09-13T11:26:25.282Z,48.96
2022-09-13T11:28:55.921Z,47.30
2022-09-13T11:31:40.474Z,46.35
2022-09-13T11:34:36.333Z,46.05
2022-09-13T11:37:30.598Z,45.70
2022-09-13T11:40:32.389Z,45.12
2022-09-13T11:42:53.728Z,42.80
2022-09-13T11:45:21.635Z,42.26
2022-09-13T11:48:10.470Z,41.60
2022-09-13T11:51:02.544Z,40.76
2022-09-13T11:54:08.356Z,40.75
2022-09-13T11:56:34.143Z,40.54
2022-09-13T11:59:04.951Z,41.17
2022-09-13T12:01:45.377Z,40.18
2022-09-13T12:04:17.481Z,42.14
2022-09-13T12:06:42.888Z,40.43
2022-09-13T12:09:33.611Z,41.16
2022-09-13T12:12:04.054Z,42.48
2022-09-13T12:14:47.274Z,42.91
2022-09-13T12:17:26.944Z,42.45
2022-09-13T12:19:51.683Z,42.07
2022-09-13T12:22:14.289Z,42.83
2022-09-13T12:25:12.367Z,43.96
2022-09-13T12:27:45.409Z,44.99
2022-09-13T12:30:16.187Z,43.51
2022-09-13T12:32:38.953Z,44.36
2022-09-13T12:35:09.150Z,44.14
2022-09-13T12:38:04.116Z,43.09
2022-09-13T12:40:41.206Z,42.64
2022-09-13T12:43:34.973Z,42.12
2022-09-13T12:46:30.229Z,39.76
2022-09-13T12:49:01.322Z,38.57
2022-09-13T12:51:48.229Z,36.68
2022-09-13T12:54:24.653Z,36.17
2022-09-13T12:57:04.194Z,33.81
2022-09-13T13:00:04.107Z,33.36
2022-09-13T13:02:36.343Z,33.10
2022-09-13T13:05:17.936Z,33.46
2022-09-13T13:07:41.174Z,32.78
2022-09-13T13:10:04.136Z,32.20
2022-09-13T13:12:38.786Z,31.86
2022-09-13T13:15:02.712Z,33.61
2022-09-13T13:17:48.768Z,34.76
2022-09-13T13:20:47.598Z,34.46
2022-09-13T13:23:23.409Z,35.95
2022-09-13T13:26:13.484Z,36.80
2022-09-13T13:28:44.397Z,37.13
2022-09-13T13:31:05.814Z,36.43
2022-09-13T13:33:29.302Z,35.98
2022-09-13T13:35:50.862Z,36.96
2022-09-13T13:38:42.595Z,36.40
2022-09-13T13:41:33.546Z,37.82
2022-09-13T13:43:55.030Z,38.82
2022-09-13T13:46:22.615Z,38.39
2022-09-13T13:48:44.186Z,38.17
2022-09-13T13:51:17.810Z,39.28
2022-09-13T13:53:42.373Z,39.67
2022-09-13T13:56:23.160Z,39.08
2022-09-13T13:58:52.090Z,38.55
2022-09-13T14:01:22.937Z,39.57
2022-09-13T14:04:15.389Z,40.19
2022-09-13T14:07:06.300Z,40.32
2022-09-13T14:09:57.980Z,40.46
2022-09-13T14:12:47.791Z,40.84
2022-09-13T14:15:24.140Z,40.66
2022-09-13T14:18:06.133Z,40.14
2022-09-13T14:20:27.630Z,40.83
2022-09-13T14:22:49.099Z,43.23
2022-09-13T14:25:25.005Z,43.01
2022-09-13T14:27:48.623Z,42.36
2022-09-13T14:30:19.194Z,40.72
2022-09-13T14:32:44.011Z,39.51
2022-09-13T14:35:21.684Z,39.56
2022-09-13T14:37:43.107Z,39.23
2022-09-13T14:40:20.444Z,38.56
2022-09-13T14:42:47.356Z,39.02
2022-09-13T14:45:18.586Z,39.04
2022-09-13T14:47:48.601Z,38.67
2022-09-13T14:50:18.349Z,39.36
2022-09-13T14:52:49.011Z,38.54
2022-09-13T14:55:16.612Z,37.85
2022-09-13T14:57:43.514Z,37.57
2022-09-13T15:00:16.651Z,36.75
2022-09-13T15:02:40.131Z,36.62
2022-09-13T15:05:06.366Z,35.93
2022-09-13T15:07:36.169Z,35.48
2022-09-13T15:10:06.166Z,35.76
2022-09-13T15:12:28.458Z,36.17
2022-09-13T15:14:49.903Z,35.95
2022-09-13T15:17:14.223Z,35.37
2022-09-13T15:19:38.689Z,35.93
2022-09-13T15:22:25.297Z,37.01
2022-09-13T15:24:52.779Z,37.48
2022-09-13T15:27:24.722Z,37.08
2022-09-13T15:30:04.718Z,37.29
2022-09-13T15:33:10.219Z,37.25
2022-09-13T15:35:36.901Z,38.61
2022-09-13T15:38:14.675Z,39.12
2022-09-13T15:40:48.172Z,38.72
2022-09-13T15:43:09.961Z,39.50
2022-09-13T15:45:31.472Z,40.38
2022-09-13T15:47:53.161Z,41.54
2022-09-13T15:50:31.037Z,42.58
2022-09-13T15:52:53.617Z,43.49
2022-09-13T15:55:15.380Z,43.88
2022-09-13T15:57:36.849Z,43.78
2022-09-13T16:00:01.459Z,43.82
2022-09-13T16:02:28.648Z,43.92
2022-09-13T16:04:50.385Z,43.39
2022-09-13T16:07:11.792Z,44.25
2022-09-13T16:09:33.223Z,44.94
2022-09-13T16:11:55.117Z,44.45
2022-09-13T16:14:17.306Z,45.48
2022-09-13T16:16:38.802Z,46.46
2022-09-13T16:19:00.418Z,46.46
2022-09-13T16:21:21.874Z,46.10
2022-09-13T16:23:43.282Z,47.02
2022-09-13T16:26:05.408Z,47.06
2022-09-13T16:28:27.762Z,46.91
2022-09-13T16:30:49.579Z,46.39
2022-09-13T16:33:10.987Z,47.11
2022-09-13T16:35:33.365Z,46.94
2022-09-13T16:37:55.063Z,47.43
2022-09-13T16:40:16.933Z,47.74
2022-09-13T16:42:39.228Z,47.34
2022-09-13T16:45:00.665Z,48.16
2022-09-13T16:47:22.412Z,48.05
2022-09-13T16:49:43.893Z,47.40
2022-09-13T16:52:05.609Z,48.44
2022-09-13T16:54:30.205Z,48.60
2022-09-13T16:56:51.648Z,48.35
2022-09-13T16:59:13.032Z,48.52
2022-09-13T17:01:35.985Z,49.25
2022-09-13T17:03:57.577Z,49.61
2022-09-13T17:06:19.906Z,49.95
2022-09-13T17:08:46.838Z,49.66
2022-09-13T17:11:12.483Z,49.89
2022-09-13T17:13:33.901Z,50.45
2022-09-13T17:15:56.796Z,50.41
2022-09-13T17:18:18.593Z,50.52
2022-09-13T17:20:47.120Z,50.83
2022-09-13T17:23:08.521Z,50.38
2022-09-13T17:25:29.948Z,50.68
2022-09-13T17:27:51.382Z,50.51
2022-09-13T17:30:13.561Z,51.06
2022-09-13T17:32:35.027Z,51.03
2022-09-13T17:34:56.484Z,51.16
2022-09-13T17:37:17.882Z,51.38
2022-09-13T17:39:39.303Z,51.71
2022-09-13T17:42:00.903Z,52.02
2022-09-13T17:44:22.350Z,52.07
2022-09-13T17:46:44.384Z,52.23
2022-09-13T17:49:06.076Z,52.04
2022-09-13T17:51:32.212Z,53.40
2022-09-13T17:53:56.398Z,53.01
2022-09-13T17:56:22.566Z,53.49
2022-09-13T17:58:43.966Z,53.10
2022-09-13T18:01:08.535Z,53.51
2022-09-13T18:03:31.693Z,53.47
2022-09-13T18:05:57.916Z,55.10
2022-09-13T18:08:19.299Z,55.13
2022-09-13T18:10:58.399Z,55.37
2022-09-13T18:13:22.164Z,54.87
2022-09-13T18:15:43.717Z,54.61
2022-09-13T18:18:05.179Z,54.70
2022-09-13T18:20:26.738Z,54.67
2022-09-13T18:22:48.139Z,54.66
2022-09-13T18:25:09.644Z,55.60
2022-09-13T18:27:31.198Z,58.16
2022-09-13T18:29:52.612Z,57.93
2022-09-13T18:32:14.021Z,58.90
2022-09-13T18:34:35.556Z,58.51
2022-09-13T18:36:56.947Z,57.00
2022-09-13T18:39:21.398Z,56.98
2022-09-13T18:41:43.054Z,56.23
2022-09-13T18:44:07.538Z,56.34
2022-09-13T18:46:31.714Z,56.30
2022-09-13T18:48:57.383Z,56.14
2022-09-13T18:51:21.984Z,56.47
2022-09-13T18:53:44.629Z,55.88
2022-09-13T18:56:11.142Z,55.14
2022-09-13T18:58:37.269Z,55.55
2022-09-13T19:01:04.209Z,57.65
2022-09-13T19:03:25.725Z,57.64
2022-09-13T19:05:47.209Z,58.22
2022-09-13T19:08:10.346Z,57.49
2022-09-13T19:10:32.426Z,57.24
2022-09-13T19:12:53.921Z,56.68
2022-09-13T19:15:15.595Z,58.06
2022-09-13T19:17:37.005Z,60.21
2022-09-13T19:19:58.913Z,60.02
2022-09-13T19:22:20.354Z,62.16
2022-09-13T19:24:41.773Z,61.55
2022-09-13T19:27:03.257Z,61.28
2022-09-13T19:29:24.944Z,61.50
2022-09-13T19:31:49.178Z,61.23
2022-09-13T19:34:12.196Z,60.81
2022-09-13T19:36:35.630Z,59.94
2022-09-13T19:38:58.111Z,61.88
2022-09-13T19:41:26.551Z,62.06
2022-09-13T19:43:49.221Z,62.11
2022-09-13T19:46:13.268Z,62.00
2022-09-13T19:48:40.268Z,64.76
2022-09-13T19:51:05.313Z,64.16
2022-09-13T19:53:46.559Z,66.47
2022-09-13T19:56:11.000Z,65.15
2022-09-13T19:58:33.207Z,65.24
2022-09-13T20:01:12.242Z,64.73
2022-09-13T20:03:34.310Z,65.44
2022-09-13T20:06:00.094Z,67.75
2022-09-13T20:08:25.113Z,67.98
2022-09-13T20:10:46.506Z,67.60
2022-09-13T20:13:07.929Z,67.83
2022-09-13T20:15:31.092Z,67.78
2022-09-13T20:17:52.603Z,68.15
2022-09-13T20:20:14.173Z,67.39
2022-09-13T20:22:35.561Z,66.96
2022-09-13T20:24:57.739Z,67.60
2022-09-13T20:27:19.135Z,68.47
2022-09-13T20:29:41.386Z,67.88
2022-09-13T20:32:03.365Z,68.43
2022-09-13T20:34:24.805Z,67.72
2022-09-13T20:36:47.199Z,66.89
2022-09-13T20:39:09.154Z,66.68
2022-09-13T20:41:31.344Z,66.03
2022-09-13T20:43:53.975Z,65.56
2022-09-13T20:46:16.172Z,65.51
2022-09-13T20:48:37.800Z,66.11
2022-09-13T20:51:05.371Z,65.69
2022-09-13T20:53:28.227Z,65.31
2022-09-13T20:55:49.618Z,65.84
2022-09-13T20:58:12.237Z,68.16
2022-09-13T21:00:33.648Z,68.17
2022-09-13T21:02:55.216Z,71.89
2022-09-13T21:05:16.759Z,69.16
2022-09-13T21:07:56.794Z,68.66
2022-09-13T21:10:18.439Z,70.73
2022-09-13T21:12:40.095Z,69.01
2022-09-13T21:15:01.967Z,68.22
2022-09-13T21:17:23.427Z,67.94
2022-09-13T21:19:44.814Z,71.52
2022-09-13T21:22:06.330Z,69.72
2022-09-13T21:24:27.789Z,68.71
2022-09-13T21:26:49.539Z,68.92
2022-09-13T21:29:11.682Z,68.50
2022-09-13T21:31:33.653Z,67.91
2022-09-13T21:33:58.115Z,68.64
2022-09-13T21:36:19.611Z,70.68
2022-09-13T21:38:41.177Z,69.59
2022-09-13T21:41:15.147Z,68.68
2022-09-13T21:43:36.869Z,68.37
2022-09-13T21:46:04.187Z,72.34
2022-09-13T21:48:25.680Z,71.14
2022-09-13T21:50:47.067Z,70.72
2022-09-13T21:53:08.487Z,70.81
2022-09-13T21:55:31.350Z,71.06
2022-09-13T21:57:53.362Z,71.29
2022-09-13T22:00:15.199Z,71.67
2022-09-13T22:02:36.723Z,71.46
2022-09-13T22:04:58.266Z,71.60
2022-09-13T22:07:19.702Z,71.58
2022-09-13T22:09:41.119Z,76.90
2022-09-13T22:12:02.722Z,76.11
2022-09-13T22:14:24.142Z,75.37
2022-09-13T22:16:48.756Z,75.32
2022-09-13T22:19:13.819Z,75.06
2022-09-13T22:21:36.714Z,76.79
2022-09-13T22:23:58.345Z,77.16
2022-09-13T22:26:22.577Z,77.36
2022-09-13T22:28:44.228Z,77.02
2022-09-13T22:31:20.491Z,76.01
2022-09-13T22:33:42.977Z,76.49
2022-09-13T22:36:08.745Z,77.54
2022-09-13T22:38:30.666Z,82.44
2022-09-13T22:41:00.516Z,79.99
2022-09-13T22:43:22.007Z,79.71
2022-09-13T22:45:43.536Z,79.81
2022-09-13T22:48:06.727Z,79.59
2022-09-13T22:50:31.029Z,86.82
2022-09-13T22:52:52.437Z,88.12
2022-09-13T22:55:13.850Z,87.73
2022-09-13T22:57:35.342Z,85.90
2022-09-13T22:59:56.738Z,84.61
2022-09-13T23:02:18.159Z,84.31
2022-09-13T23:04:39.564Z,84.42
2022-09-13T23:07:00.990Z,84.50
2022-09-13T23:09:22.518Z,84.11
2022-09-13T23:11:45.160Z,85.24
2022-09-13T23:14:09.966Z,84.67
2022-09-13T23:16:35.448Z,85.38
2022-09-13T23:18:58.131Z,87.51
2022-09-13T23:21:21.357Z,88.30
2022-09-13T23:23:43.125Z,86.82
2022-09-13T23:26:10.302Z,85.78
2022-09-13T23:28:31.755Z,86.67
2022-09-13T23:30:53.170Z,86.05
2022-09-13T23:33:14.601Z,85.77
2022-09-13T23:35:37.606Z,85.59
2022-09-13T23:37:59.150Z,85.89
2022-09-13T23:40:22.759Z,89.59
2022-09-13T23:42:44.188Z,91.02
2022-09-13T23:45:06.407Z,89.75
2022-09-13T23:47:27.808Z,88.69
2022-09-13T23:49:49.229Z,87.82
2022-09-13T23:52:10.646Z,87.39
2022-09-13T23:54:32.056Z,88.82
2022-09-13T23:56:53.517Z,89.35
2022-09-13T23:59:14.992Z,88.32
